Lilypad — WDD9770 — position and weather

sailwx.info

Track history (hours):
 
Tides and Currents Weather Stations Pressure Air Temp Water Temp Dewpoint Dewpoint Depression Visibility Wind Speed Wind Dir Waves Ship Positions

Lilypad

Owner: weippert, don w, Yakima, WA. More information available from US FCC via Universal Licensing System and Coast Guard Vessel Documentation Center.

Last reported at 2016-Jul-18 01:27 UTC. Time now 2016-Jul-23 11:07 UTC.
Position N 47°41' W 122°24'.

Length 18 m; draft 2 m.

Type: Pleasure craft. MMSI: 367316110.

Date/timePositionNaut miles runAvg speedWind from/ knotsBaromVisibWave heightAir tempDewpointWater temp
2016-Jul-18 01:27N 47°41' W 122°24'4 4.9
2016-Jul-18 00:33N 47°37' W 122°26'7 7.2
2016-Jul-17 23:33N 47°30' W 122°30'7 7.4
2016-Jul-17 22:33N 47°23' W 122°32'3 0.1
2016-Jul-16 22:33N 47°20' W 122°35'5 5.1
2016-Jul-16 21:33N 47°25' W 122°32'7 7.2
2016-Jul-16 20:33N 47°32' W 122°29'7 7.3
2016-Jul-16 19:33N 47°39' W 122°27'  
2016-Jul-13 02:33N 47°41' W 122°24'6 6.1
2016-Jul-13 01:33N 47°47' W 122°25'7 7.3
2016-Jul-13 00:33N 47°54' W 122°28'39 6.6
2016-Jul-12 18:32N 48°28' W 122°57'5 4.6
2016-Jul-12 17:32N 48°33' W 122°59'8 6.9
2016-Jul-12 16:27N 48°38' W 123°08'2 1.8
2016-Jul-12 15:34N 48°37' W 123°10'0 0.0
2016-Jul-12 03:07N 48°37' W 123°10'1 2.2
2016-Jul-12 02:34N 48°36' W 123°10'7 7.1
2016-Jul-12 01:33N 48°29' W 123°09'7 6.9
2016-Jul-12 00:33N 48°22' W 123°13'7 7.3
2016-Jul-11 23:33N 48°17' W 123°20'7 7.1
2016-Jul-11 22:31N 48°12' W 123°29'7 6.3
2016-Jul-11 21:29N 48°12' W 123°39'13 6.9
2016-Jul-11 19:32N 48°14' W 123°59'7 6.8
2016-Jul-11 18:33N 48°16' W 124°08'7 7.3
2016-Jul-11 17:32N 48°19' W 124°18'7 7.6
2016-Jul-11 16:34N 48°23' W 124°28'8 7.8
2016-Jul-11 15:33N 48°25' W 124°40'7 6.9
2016-Jul-11 14:32N 48°20' W 124°48'9 8.0
2016-Jul-11 13:28N 48°11' W 124°50'67 7.4
2016-Jul-11 04:26N 47°05' W 124°46'6 6.9
2016-Jul-11 03:31N 46°59' W 124°45'6 6.4
2016-Jul-11 02:32N 46°52' W 124°45'7 6.9
2016-Jul-11 01:33N 46°46' W 124°45'7 6.8
2016-Jul-11 00:33N 46°39' W 124°45'6 6.5
2016-Jul-10 23:33N 46°32' W 124°45'7 6.6
2016-Jul-10 22:33N 46°26' W 124°45'7 6.6
2016-Jul-10 21:33N 46°19' W 124°45'7 6.8
2016-Jul-10 20:33N 46°12' W 124°45'7 7.0
2016-Jul-10 19:33N 46°05' W 124°45'7 7.0
2016-Jul-10 18:33N 45°58' W 124°46'7 7.3
2016-Jul-10 17:33N 45°51' W 124°47'7 7.1
2016-Jul-10 16:33N 45°44' W 124°48'7 6.8
2016-Jul-10 15:34N 45°37' W 124°49'8 7.0
2016-Jul-10 14:26N 45°30' W 124°50'  
Track history (hours):
 
Tides and Currents Weather Stations Pressure Air Temp Water Temp Dewpoint Dewpoint Depression Visibility Wind Speed Wind Dir Waves Ship Positions

Lilypad

Owner: weippert, don w, Yakima, WA. More information available from US FCC via Universal Licensing System and Coast Guard Vessel Documentation Center.

Last reported at 2016-Jul-18 01:27 UTC. Time now 2016-Jul-23 11:07 UTC.
Position N 47°41' W 122°24'.

Length 18 m; draft 2 m.

Type: Pleasure craft. MMSI: 367316110.

Date/timePositionNaut miles runAvg speedWind from/ knotsBaromVisibWave heightAir tempDewpointWater temp
2016-Jul-18 01:27N 47°41' W 122°24'4 4.9
2016-Jul-18 00:33N 47°37' W 122°26'7 7.2
2016-Jul-17 23:33N 47°30' W 122°30'7 7.4
2016-Jul-17 22:33N 47°23' W 122°32'3 0.1
2016-Jul-16 22:33N 47°20' W 122°35'5 5.1
2016-Jul-16 21:33N 47°25' W 122°32'7 7.2
2016-Jul-16 20:33N 47°32' W 122°29'7 7.3
2016-Jul-16 19:33N 47°39' W 122°27'  
2016-Jul-13 02:33N 47°41' W 122°24'6 6.1
2016-Jul-13 01:33N 47°47' W 122°25'7 7.3
2016-Jul-13 00:33N 47°54' W 122°28'39 6.6
2016-Jul-12 18:32N 48°28' W 122°57'5 4.6
2016-Jul-12 17:32N 48°33' W 122°59'8 6.9
2016-Jul-12 16:27N 48°38' W 123°08'2 1.8
2016-Jul-12 15:34N 48°37' W 123°10'0 0.0
2016-Jul-12 03:07N 48°37' W 123°10'1 2.2
2016-Jul-12 02:34N 48°36' W 123°10'7 7.1
2016-Jul-12 01:33N 48°29' W 123°09'7 6.9
2016-Jul-12 00:33N 48°22' W 123°13'7 7.3
2016-Jul-11 23:33N 48°17' W 123°20'7 7.1
2016-Jul-11 22:31N 48°12' W 123°29'7 6.3
2016-Jul-11 21:29N 48°12' W 123°39'13 6.9
2016-Jul-11 19:32N 48°14' W 123°59'7 6.8
2016-Jul-11 18:33N 48°16' W 124°08'7 7.3
2016-Jul-11 17:32N 48°19' W 124°18'7 7.6
2016-Jul-11 16:34N 48°23' W 124°28'8 7.8
2016-Jul-11 15:33N 48°25' W 124°40'7 6.9
2016-Jul-11 14:32N 48°20' W 124°48'9 8.0
2016-Jul-11 13:28N 48°11' W 124°50'67 7.4
2016-Jul-11 04:26N 47°05' W 124°46'6 6.9
2016-Jul-11 03:31N 46°59' W 124°45'6 6.4
2016-Jul-11 02:32N 46°52' W 124°45'7 6.9
2016-Jul-11 01:33N 46°46' W 124°45'7 6.8
2016-Jul-11 00:33N 46°39' W 124°45'6 6.5
2016-Jul-10 23:33N 46°32' W 124°45'7 6.6
2016-Jul-10 22:33N 46°26' W 124°45'7 6.6
2016-Jul-10 21:33N 46°19' W 124°45'7 6.8
2016-Jul-10 20:33N 46°12' W 124°45'7 7.0
2016-Jul-10 19:33N 46°05' W 124°45'7 7.0
2016-Jul-10 18:33N 45°58' W 124°46'7 7.3
2016-Jul-10 17:33N 45°51' W 124°47'7 7.1
2016-Jul-10 16:33N 45°44' W 124°48'7 6.8
2016-Jul-10 15:34N 45°37' W 124°49'8 7.0
2016-Jul-10 14:26N 45°30' W 124°50'  

Dump ship's entire track history